sensor_id;sensor_type;location;lat;lon;timestamp;temperature;humidity
17697;DHT22;8967;47.984;7.842;2023-06-10T00:01:39;22.50;67.00
17697;DHT22;8967;47.984;7.842;2023-06-10T00:04:07;22.50;67.20
17697;DHT22;8967;47.984;7.842;2023-06-10T00:06:36;22.50;67.50
17697;DHT22;8967;47.984;7.842;2023-06-10T00:09:05;22.40;67.70
17697;DHT22;8967;47.984;7.842;2023-06-10T00:11:33;22.40;67.90
17697;DHT22;8967;47.984;7.842;2023-06-10T00:14:00;22.30;67.90
17697;DHT22;8967;47.984;7.842;2023-06-10T00:16:28;22.30;68.20
17697;DHT22;8967;47.984;7.842;2023-06-10T00:18:56;22.30;68.20
17697;DHT22;8967;47.984;7.842;2023-06-10T00:21:26;22.30;68.30
17697;DHT22;8967;47.984;7.842;2023-06-10T00:23:55;22.20;68.50
17697;DHT22;8967;47.984;7.842;2023-06-10T00:26:22;22.20;68.70
17697;DHT22;8967;47.984;7.842;2023-06-10T00:28:50;22.20;68.70
17697;DHT22;8967;47.984;7.842;2023-06-10T00:31:18;22.10;68.70
17697;DHT22;8967;47.984;7.842;2023-06-10T00:34:12;22.10;68.70
17697;DHT22;8967;47.984;7.842;2023-06-10T00:36:41;22.10;68.70
17697;DHT22;8967;47.984;7.842;2023-06-10T00:39:11;22.00;68.70
17697;DHT22;8967;47.984;7.842;2023-06-10T00:41:37;22.00;68.70
17697;DHT22;8967;47.984;7.842;2023-06-10T00:44:05;22.00;68.80
17697;DHT22;8967;47.984;7.842;2023-06-10T00:46:32;21.90;69.40
17697;DHT22;8967;47.984;7.842;2023-06-10T00:49:01;21.90;68.70
17697;DHT22;8967;47.984;7.842;2023-06-10T00:51:31;21.90;68.90
17697;DHT22;8967;47.984;7.842;2023-06-10T00:53:57;21.80;68.90
17697;DHT22;8967;47.984;7.842;2023-06-10T00:56:25;21.80;69.20
17697;DHT22;8967;47.984;7.842;2023-06-10T00:58:52;21.80;69.50
17697;DHT22;8967;47.984;7.842;2023-06-10T01:01:19;21.70;69.60
17697;DHT22;8967;47.984;7.842;2023-06-10T01:03:46;21.70;69.60
17697;DHT22;8967;47.984;7.842;2023-06-10T01:06:24;21.60;69.90
17697;DHT22;8967;47.984;7.842;2023-06-10T01:08:59;21.50;70.50
17697;DHT22;8967;47.984;7.842;2023-06-10T01:11:33;21.50;70.60
17697;DHT22;8967;47.984;7.842;2023-06-10T01:14:04;21.50;70.70
17697;DHT22;8967;47.984;7.842;2023-06-10T01:16:33;21.50;70.70
17697;DHT22;8967;47.984;7.842;2023-06-10T01:19:02;21.50;70.90
17697;DHT22;8967;47.984;7.842;2023-06-10T01:21:32;21.50;71.00
17697;DHT22;8967;47.984;7.842;2023-06-10T01:23:59;21.50;71.00
17697;DHT22;8967;47.984;7.842;2023-06-10T01:26:30;21.40;71.00
17697;DHT22;8967;47.984;7.842;2023-06-10T01:29:07;21.40;71.10
17697;DHT22;8967;47.984;7.842;2023-06-10T01:31:42;21.40;71.20
17697;DHT22;8967;47.984;7.842;2023-06-10T01:34:14;21.30;71.20
17697;DHT22;8967;47.984;7.842;2023-06-10T01:36:46;21.30;71.40
17697;DHT22;8967;47.984;7.842;2023-06-10T01:39:14;21.20;71.60
17697;DHT22;8967;47.984;7.842;2023-06-10T01:41:42;21.20;71.70
17697;DHT22;8967;47.984;7.842;2023-06-10T01:44:10;21.20;71.80
17697;DHT22;8967;47.984;7.842;2023-06-10T01:46:39;21.10;71.80
17697;DHT22;8967;47.984;7.842;2023-06-10T01:49:06;21.10;71.90
17697;DHT22;8967;47.984;7.842;2023-06-10T01:51:33;21.00;71.90
17697;DHT22;8967;47.984;7.842;2023-06-10T01:54:01;21.00;72.20
17697;DHT22;8967;47.984;7.842;2023-06-10T01:56:28;21.00;72.40
17697;DHT22;8967;47.984;7.842;2023-06-10T01:58:55;21.00;72.40
17697;DHT22;8967;47.984;7.842;2023-06-10T02:01:24;20.90;72.50
17697;DHT22;8967;47.984;7.842;2023-06-10T02:03:51;20.90;72.50
17697;DHT22;8967;47.984;7.842;2023-06-10T02:06:20;20.90;72.40
17697;DHT22;8967;47.984;7.842;2023-06-10T02:08:47;20.90;72.60
17697;DHT22;8967;47.984;7.842;2023-06-10T02:11:15;20.80;72.60
17697;DHT22;8967;47.984;7.842;2023-06-10T02:13:42;20.70;71.90
17697;DHT22;8967;47.984;7.842;2023-06-10T02:16:09;20.70;72.90
17697;DHT22;8967;47.984;7.842;2023-06-10T02:18:38;20.70;72.90
17697;DHT22;8967;47.984;7.842;2023-06-10T02:21:08;20.70;72.90
17697;DHT22;8967;47.984;7.842;2023-06-10T02:23:35;20.70;72.90
17697;DHT22;8967;47.984;7.842;2023-06-10T02:26:03;20.70;72.90
17697;DHT22;8967;47.984;7.842;2023-06-10T02:28:32;20.70;73.00
17697;DHT22;8967;47.984;7.842;2023-06-10T02:30:58;20.70;73.10
17697;DHT22;8967;47.984;7.842;2023-06-10T02:33:26;20.70;73.10
17697;DHT22;8967;47.984;7.842;2023-06-10T02:35:53;20.60;73.50
17697;DHT22;8967;47.984;7.842;2023-06-10T02:38:21;20.60;73.70
17697;DHT22;8967;47.984;7.842;2023-06-10T02:40:49;20.60;73.70
17697;DHT22;8967;47.984;7.842;2023-06-10T02:43:16;20.60;74.00
17697;DHT22;8967;47.984;7.842;2023-06-10T02:45:45;20.60;74.40
17697;DHT22;8967;47.984;7.842;2023-06-10T02:48:13;20.50;74.90
17697;DHT22;8967;47.984;7.842;2023-06-10T02:50:40;20.40;75.20
17697;DHT22;8967;47.984;7.842;2023-06-10T02:53:23;20.40;75.30
17697;DHT22;8967;47.984;7.842;2023-06-10T02:55:55;20.40;75.30
17697;DHT22;8967;47.984;7.842;2023-06-10T02:58:22;20.40;75.30
17697;DHT22;8967;47.984;7.842;2023-06-10T03:00:51;20.40;74.80
17697;DHT22;8967;47.984;7.842;2023-06-10T03:03:18;20.30;75.00
17697;DHT22;8967;47.984;7.842;2023-06-10T03:06:02;20.30;74.90
17697;DHT22;8967;47.984;7.842;2023-06-10T03:08:30;20.20;74.30
17697;DHT22;8967;47.984;7.842;2023-06-10T03:10:59;20.20;74.40
17697;DHT22;8967;47.984;7.842;2023-06-10T03:13:27;20.20;74.60
17697;DHT22;8967;47.984;7.842;2023-06-10T03:15:55;20.20;74.00
17697;DHT22;8967;47.984;7.842;2023-06-10T03:18:27;20.10;74.00
17697;DHT22;8967;47.984;7.842;2023-06-10T03:20:54;20.00;74.10
17697;DHT22;8967;47.984;7.842;2023-06-10T03:23:25;19.90;74.30
17697;DHT22;8967;47.984;7.842;2023-06-10T03:25:53;19.90;74.80
17697;DHT22;8967;47.984;7.842;2023-06-10T03:28:20;19.80;74.70
17697;DHT22;8967;47.984;7.842;2023-06-10T03:30:48;19.80;75.10
17697;DHT22;8967;47.984;7.842;2023-06-10T03:33:17;19.80;75.30
17697;DHT22;8967;47.984;7.842;2023-06-10T03:35:46;19.80;75.40
17697;DHT22;8967;47.984;7.842;2023-06-10T03:38:13;19.80;75.40
17697;DHT22;8967;47.984;7.842;2023-06-10T03:40:43;19.80;75.70
17697;DHT22;8967;47.984;7.842;2023-06-10T03:43:10;19.80;76.80
17697;DHT22;8967;47.984;7.842;2023-06-10T03:45:37;19.80;76.40
17697;DHT22;8967;47.984;7.842;2023-06-10T03:48:05;19.80;76.60
17697;DHT22;8967;47.984;7.842;2023-06-10T03:50:53;19.80;76.70
17697;DHT22;8967;47.984;7.842;2023-06-10T03:53:21;19.70;77.00
17697;DHT22;8967;47.984;7.842;2023-06-10T03:55:49;19.70;77.10
17697;DHT22;8967;47.984;7.842;2023-06-10T03:58:18;19.60;77.20
17697;DHT22;8967;47.984;7.842;2023-06-10T04:00:46;19.60;77.40
17697;DHT22;8967;47.984;7.842;2023-06-10T04:03:13;19.60;77.50
17697;DHT22;8967;47.984;7.842;2023-06-10T04:05:44;19.50;77.60
17697;DHT22;8967;47.984;7.842;2023-06-10T04:08:12;19.50;77.70
17697;DHT22;8967;47.984;7.842;2023-06-10T04:10:39;19.50;77.70
17697;DHT22;8967;47.984;7.842;2023-06-10T04:13:06;19.40;77.90
17697;DHT22;8967;47.984;7.842;2023-06-10T04:15:40;19.40;77.90
17697;DHT22;8967;47.984;7.842;2023-06-10T04:18:10;19.40;78.10
17697;DHT22;8967;47.984;7.842;2023-06-10T04:20:37;19.40;78.10
17697;DHT22;8967;47.984;7.842;2023-06-10T04:23:06;19.40;78.20
17697;DHT22;8967;47.984;7.842;2023-06-10T04:25:35;19.40;78.10
17697;DHT22;8967;47.984;7.842;2023-06-10T04:28:02;19.40;78.30
17697;DHT22;8967;47.984;7.842;2023-06-10T04:30:30;19.30;78.50
17697;DHT22;8967;47.984;7.842;2023-06-10T04:33:00;19.30;78.80
17697;DHT22;8967;47.984;7.842;2023-06-10T04:35:27;19.30;79.20
17697;DHT22;8967;47.984;7.842;2023-06-10T04:37:56;19.30;79.40
17697;DHT22;8967;47.984;7.842;2023-06-10T04:40:23;19.30;79.60
17697;DHT22;8967;47.984;7.842;2023-06-10T04:42:52;19.30;79.80
17697;DHT22;8967;47.984;7.842;2023-06-10T04:45:19;19.30;80.00
17697;DHT22;8967;47.984;7.842;2023-06-10T04:47:46;19.30;79.80
17697;DHT22;8967;47.984;7.842;2023-06-10T04:50:13;19.30;80.10
17697;DHT22;8967;47.984;7.842;2023-06-10T04:52:41;19.30;80.10
17697;DHT22;8967;47.984;7.842;2023-06-10T04:55:09;19.30;80.30
17697;DHT22;8967;47.984;7.842;2023-06-10T04:57:36;19.30;80.40
17697;DHT22;8967;47.984;7.842;2023-06-10T05:00:05;19.40;80.30
17697;DHT22;8967;47.984;7.842;2023-06-10T05:02:34;19.40;81.00
17697;DHT22;8967;47.984;7.842;2023-06-10T05:05:00;19.40;80.30
17697;DHT22;8967;47.984;7.842;2023-06-10T05:07:27;19.40;80.20
17697;DHT22;8967;47.984;7.842;2023-06-10T05:09:55;19.40;80.10
17697;DHT22;8967;47.984;7.842;2023-06-10T05:12:22;19.50;80.10
17697;DHT22;8967;47.984;7.842;2023-06-10T05:14:49;19.50;79.60
17697;DHT22;8967;47.984;7.842;2023-06-10T05:17:17;19.50;79.40
17697;DHT22;8967;47.984;7.842;2023-06-10T05:19:44;19.50;79.50
17697;DHT22;8967;47.984;7.842;2023-06-10T05:22:10;19.50;79.70
17697;DHT22;8967;47.984;7.842;2023-06-10T05:24:37;19.50;79.60
17697;DHT22;8967;47.984;7.842;2023-06-10T05:27:05;19.50;79.40
17697;DHT22;8967;47.984;7.842;2023-06-10T05:29:32;19.50;79.40
17697;DHT22;8967;47.984;7.842;2023-06-10T05:31:59;19.50;79.50
17697;DHT22;8967;47.984;7.842;2023-06-10T05:34:30;19.50;79.80
17697;DHT22;8967;47.984;7.842;2023-06-10T05:36:59;19.60;79.80
17697;DHT22;8967;47.984;7.842;2023-06-10T05:39:28;19.50;79.60
17697;DHT22;8967;47.984;7.842;2023-06-10T05:41:55;19.60;79.90
17697;DHT22;8967;47.984;7.842;2023-06-10T05:44:26;19.60;80.10
17697;DHT22;8967;47.984;7.842;2023-06-10T05:46:53;19.60;80.30
17697;DHT22;8967;47.984;7.842;2023-06-10T05:49:22;19.70;80.50
17697;DHT22;8967;47.984;7.842;2023-06-10T05:51:51;19.70;80.70
17697;DHT22;8967;47.984;7.842;2023-06-10T05:54:18;19.80;80.70
17697;DHT22;8967;47.984;7.842;2023-06-10T05:56:45;19.80;80.80
17697;DHT22;8967;47.984;7.842;2023-06-10T05:59:14;19.80;80.70
17697;DHT22;8967;47.984;7.842;2023-06-10T06:01:44;19.90;80.70
17697;DHT22;8967;47.984;7.842;2023-06-10T06:04:11;19.90;80.70
17697;DHT22;8967;47.984;7.842;2023-06-10T06:06:38;19.90;80.70
17697;DHT22;8967;47.984;7.842;2023-06-10T06:09:07;20.00;80.90
17697;DHT22;8967;47.984;7.842;2023-06-10T06:11:34;20.00;81.30
17697;DHT22;8967;47.984;7.842;2023-06-10T06:14:01;20.10;81.30
17697;DHT22;8967;47.984;7.842;2023-06-10T06:16:30;20.10;81.60
17697;DHT22;8967;47.984;7.842;2023-06-10T06:18:57;20.10;81.90
17697;DHT22;8967;47.984;7.842;2023-06-10T06:21:23;20.20;82.00
17697;DHT22;8967;47.984;7.842;2023-06-10T06:23:50;20.20;81.70
17697;DHT22;8967;47.984;7.842;2023-06-10T06:26:19;20.30;81.50
17697;DHT22;8967;47.984;7.842;2023-06-10T06:28:46;20.30;81.50
17697;DHT22;8967;47.984;7.842;2023-06-10T06:31:13;20.30;81.50
17697;DHT22;8967;47.984;7.842;2023-06-10T06:33:40;20.40;81.60
17697;DHT22;8967;47.984;7.842;2023-06-10T06:36:06;20.40;81.40
17697;DHT22;8967;47.984;7.842;2023-06-10T06:38:36;20.50;81.40
17697;DHT22;8967;47.984;7.842;2023-06-10T06:41:03;20.50;81.20
17697;DHT22;8967;47.984;7.842;2023-06-10T06:43:34;20.50;81.40
17697;DHT22;8967;47.984;7.842;2023-06-10T06:46:23;20.60;81.80
17697;DHT22;8967;47.984;7.842;2023-06-10T06:48:49;20.60;81.90
17697;DHT22;8967;47.984;7.842;2023-06-10T06:51:16;20.60;81.70
17697;DHT22;8967;47.984;7.842;2023-06-10T06:53:43;20.70;81.80
17697;DHT22;8967;47.984;7.842;2023-06-10T06:56:13;20.70;81.60
17697;DHT22;8967;47.984;7.842;2023-06-10T06:58:41;20.80;81.60
17697;DHT22;8967;47.984;7.842;2023-06-10T07:01:08;20.80;81.50
17697;DHT22;8967;47.984;7.842;2023-06-10T07:03:35;20.80;81.40
17697;DHT22;8967;47.984;7.842;2023-06-10T07:06:02;20.90;81.40
17697;DHT22;8967;47.984;7.842;2023-06-10T07:08:29;20.90;81.60
17697;DHT22;8967;47.984;7.842;2023-06-10T07:10:56;20.90;81.60
17697;DHT22;8967;47.984;7.842;2023-06-10T07:13:23;21.00;81.80
17697;DHT22;8967;47.984;7.842;2023-06-10T07:15:53;21.00;82.00
17697;DHT22;8967;47.984;7.842;2023-06-10T07:18:20;21.10;81.80
17697;DHT22;8967;47.984;7.842;2023-06-10T07:20:49;21.10;81.80
17697;DHT22;8967;47.984;7.842;2023-06-10T07:23:17;21.10;81.70
17697;DHT22;8967;47.984;7.842;2023-06-10T07:25:44;21.10;81.80
17697;DHT22;8967;47.984;7.842;2023-06-10T07:28:11;21.20;81.80
17697;DHT22;8967;47.984;7.842;2023-06-10T07:30:37;21.20;81.90
17697;DHT22;8967;47.984;7.842;2023-06-10T07:33:06;21.30;83.30
17697;DHT22;8967;47.984;7.842;2023-06-10T07:35:33;21.30;82.40
17697;DHT22;8967;47.984;7.842;2023-06-10T07:38:00;21.40;82.20
17697;DHT22;8967;47.984;7.842;2023-06-10T07:40:29;21.40;82.10
17697;DHT22;8967;47.984;7.842;2023-06-10T07:42:56;21.50;82.30
17697;DHT22;8967;47.984;7.842;2023-06-10T07:45:23;21.50;82.00
17697;DHT22;8967;47.984;7.842;2023-06-10T07:47:53;21.50;81.60
17697;DHT22;8967;47.984;7.842;2023-06-10T07:50:22;21.60;81.80
17697;DHT22;8967;47.984;7.842;2023-06-10T07:52:48;21.70;82.80
17697;DHT22;8967;47.984;7.842;2023-06-10T07:55:15;21.70;81.80
17697;DHT22;8967;47.984;7.842;2023-06-10T07:57:45;21.80;81.30
17697;DHT22;8967;47.984;7.842;2023-06-10T08:00:18;21.80;81.20
17697;DHT22;8967;47.984;7.842;2023-06-10T08:02:45;21.90;81.40
17697;DHT22;8967;47.984;7.842;2023-06-10T08:05:12;21.90;81.20
17697;DHT22;8967;47.984;7.842;2023-06-10T08:07:42;22.00;81.50
17697;DHT22;8967;47.984;7.842;2023-06-10T08:10:10;22.10;81.70
17697;DHT22;8967;47.984;7.842;2023-06-10T08:12:37;22.10;81.30
17697;DHT22;8967;47.984;7.842;2023-06-10T08:15:05;22.20;80.90
17697;DHT22;8967;47.984;7.842;2023-06-10T08:17:32;22.20;81.00
17697;DHT22;8967;47.984;7.842;2023-06-10T08:19:59;22.30;80.90
17697;DHT22;8967;47.984;7.842;2023-06-10T08:22:26;22.40;80.90
17697;DHT22;8967;47.984;7.842;2023-06-10T08:24:55;22.40;81.00
17697;DHT22;8967;47.984;7.842;2023-06-10T08:27:22;22.50;80.80
17697;DHT22;8967;47.984;7.842;2023-06-10T08:29:50;22.60;80.90
17697;DHT22;8967;47.984;7.842;2023-06-10T08:32:17;22.60;80.90
17697;DHT22;8967;47.984;7.842;2023-06-10T08:34:44;22.70;81.10
17697;DHT22;8967;47.984;7.842;2023-06-10T08:37:11;22.80;81.00
17697;DHT22;8967;47.984;7.842;2023-06-10T08:39:38;22.80;80.10
17697;DHT22;8967;47.984;7.842;2023-06-10T08:42:11;22.90;80.20
17697;DHT22;8967;47.984;7.842;2023-06-10T08:44:46;22.90;79.90
17697;DHT22;8967;47.984;7.842;2023-06-10T08:47:14;22.90;80.00
17697;DHT22;8967;47.984;7.842;2023-06-10T08:49:43;23.00;80.20
17697;DHT22;8967;47.984;7.842;2023-06-10T08:52:14;23.10;79.90
17697;DHT22;8967;47.984;7.842;2023-06-10T08:54:45;23.10;79.70
17697;DHT22;8967;47.984;7.842;2023-06-10T08:57:15;23.20;78.80
17697;DHT22;8967;47.984;7.842;2023-06-10T08:59:43;23.20;78.50
17697;DHT22;8967;47.984;7.842;2023-06-10T09:02:10;23.20;77.80
17697;DHT22;8967;47.984;7.842;2023-06-10T09:04:41;23.20;77.40
17697;DHT22;8967;47.984;7.842;2023-06-10T09:07:09;23.20;77.50
17697;DHT22;8967;47.984;7.842;2023-06-10T09:09:37;23.30;77.50
17697;DHT22;8967;47.984;7.842;2023-06-10T09:12:07;23.30;77.70
17697;DHT22;8967;47.984;7.842;2023-06-10T09:14:35;23.40;77.80
17697;DHT22;8967;47.984;7.842;2023-06-10T09:17:05;23.50;77.60
17697;DHT22;8967;47.984;7.842;2023-06-10T09:19:33;23.50;77.70
17697;DHT22;8967;47.984;7.842;2023-06-10T09:22:01;23.60;77.70
17697;DHT22;8967;47.984;7.842;2023-06-10T09:24:32;23.60;78.60
17697;DHT22;8967;47.984;7.842;2023-06-10T09:27:03;23.70;77.80
17697;DHT22;8967;47.984;7.842;2023-06-10T09:29:30;23.70;77.30
17697;DHT22;8967;47.984;7.842;2023-06-10T09:31:58;23.70;77.50
17697;DHT22;8967;47.984;7.842;2023-06-10T09:34:28;23.70;77.90
17697;DHT22;8967;47.984;7.842;2023-06-10T09:36:55;23.80;77.80
17697;DHT22;8967;47.984;7.842;2023-06-10T09:39:25;23.80;77.90
17697;DHT22;8967;47.984;7.842;2023-06-10T09:41:55;23.80;77.90
17697;DHT22;8967;47.984;7.842;2023-06-10T09:44:22;23.90;77.40
17697;DHT22;8967;47.984;7.842;2023-06-10T09:46:50;23.90;77.30
17697;DHT22;8967;47.984;7.842;2023-06-10T09:49:21;24.00;77.40
17697;DHT22;8967;47.984;7.842;2023-06-10T09:51:51;24.00;77.40
17697;DHT22;8967;47.984;7.842;2023-06-10T09:54:18;24.10;76.80
17697;DHT22;8967;47.984;7.842;2023-06-10T09:56:47;24.20;76.60
17697;DHT22;8967;47.984;7.842;2023-06-10T09:59:15;24.20;76.10
17697;DHT22;8967;47.984;7.842;2023-06-10T10:01:42;24.20;76.20
17697;DHT22;8967;47.984;7.842;2023-06-10T10:04:09;24.20;75.80
17697;DHT22;8967;47.984;7.842;2023-06-10T10:06:38;24.20;76.10
17697;DHT22;8967;47.984;7.842;2023-06-10T10:09:06;24.30;76.20
17697;DHT22;8967;47.984;7.842;2023-06-10T10:11:34;24.30;76.10
17697;DHT22;8967;47.984;7.842;2023-06-10T10:14:04;24.30;76.20
17697;DHT22;8967;47.984;7.842;2023-06-10T10:16:36;24.30;76.40
17697;DHT22;8967;47.984;7.842;2023-06-10T10:19:10;24.30;76.60
17697;DHT22;8967;47.984;7.842;2023-06-10T10:21:44;24.40;76.60
17697;DHT22;8967;47.984;7.842;2023-06-10T10:24:18;24.40;76.70
17697;DHT22;8967;47.984;7.842;2023-06-10T10:26:46;24.50;76.50
17697;DHT22;8967;47.984;7.842;2023-06-10T10:29:19;24.50;76.70
17697;DHT22;8967;47.984;7.842;2023-06-10T10:31:50;24.50;76.30
17697;DHT22;8967;47.984;7.842;2023-06-10T10:34:21;24.60;77.20
17697;DHT22;8967;47.984;7.842;2023-06-10T10:36:52;24.60;76.20
17697;DHT22;8967;47.984;7.842;2023-06-10T10:39:19;24.70;75.40
17697;DHT22;8967;47.984;7.842;2023-06-10T10:41:47;24.70;74.40
17697;DHT22;8967;47.984;7.842;2023-06-10T10:44:14;24.70;74.60
17697;DHT22;8967;47.984;7.842;2023-06-10T10:46:42;24.70;74.60
17697;DHT22;8967;47.984;7.842;2023-06-10T10:49:13;24.70;74.80
17697;DHT22;8967;47.984;7.842;2023-06-10T10:51:57;24.70;74.80
17697;DHT22;8967;47.984;7.842;2023-06-10T10:54:34;24.80;74.00
17697;DHT22;8967;47.984;7.842;2023-06-10T10:57:12;24.80;74.00
17697;DHT22;8967;47.984;7.842;2023-06-10T10:59:53;24.80;73.80
17697;DHT22;8967;47.984;7.842;2023-06-10T11:02:36;24.90;72.80
17697;DHT22;8967;47.984;7.842;2023-06-10T11:05:06;24.90;73.00
17697;DHT22;8967;47.984;7.842;2023-06-10T11:07:35;24.90;72.70
17697;DHT22;8967;47.984;7.842;2023-06-10T11:10:05;24.90;72.40
17697;DHT22;8967;47.984;7.842;2023-06-10T11:12:51;25.00;72.50
17697;DHT22;8967;47.984;7.842;2023-06-10T11:15:20;25.00;72.90
17697;DHT22;8967;47.984;7.842;2023-06-10T11:18:08;25.00;72.20
17697;DHT22;8967;47.984;7.842;2023-06-10T11:20:56;25.10;70.50
17697;DHT22;8967;47.984;7.842;2023-06-10T11:23:42;25.10;71.10
17697;DHT22;8967;47.984;7.842;2023-06-10T11:26:21;25.20;71.60
17697;DHT22;8967;47.984;7.842;2023-06-10T11:29:08;25.20;71.40
17697;DHT22;8967;47.984;7.842;2023-06-10T11:31:49;25.20;71.90
17697;DHT22;8967;47.984;7.842;2023-06-10T11:34:22;25.20;70.60
17697;DHT22;8967;47.984;7.842;2023-06-10T11:36:53;25.20;70.30
17697;DHT22;8967;47.984;7.842;2023-06-10T11:39:23;25.20;70.30
17697;DHT22;8967;47.984;7.842;2023-06-10T11:41:52;25.20;69.90
17697;DHT22;8967;47.984;7.842;2023-06-10T11:44:19;25.20;70.00
17697;DHT22;8967;47.984;7.842;2023-06-10T11:46:48;25.20;69.50
17697;DHT22;8967;47.984;7.842;2023-06-10T11:49:15;25.30;68.90
17697;DHT22;8967;47.984;7.842;2023-06-10T11:51:44;25.30;68.70
17697;DHT22;8967;47.984;7.842;2023-06-10T11:54:15;25.30;68.70
17697;DHT22;8967;47.984;7.842;2023-06-10T11:56:46;25.30;68.70
17697;DHT22;8967;47.984;7.842;2023-06-10T11:59:13;25.20;68.20
17697;DHT22;8967;47.984;7.842;2023-06-10T12:01:43;25.20;68.60
17697;DHT22;8967;47.984;7.842;2023-06-10T12:04:12;25.30;68.80
17697;DHT22;8967;47.984;7.842;2023-06-10T12:06:55;25.20;68.80
17697;DHT22;8967;47.984;7.842;2023-06-10T12:09:30;25.30;69.30
17697;DHT22;8967;47.984;7.842;2023-06-10T12:12:01;25.30;69.30
17697;DHT22;8967;47.984;7.842;2023-06-10T12:15:07;25.30;69.50
17697;DHT22;8967;47.984;7.842;2023-06-10T12:17:51;25.40;69.60
17697;DHT22;8967;47.984;7.842;2023-06-10T12:20:26;25.40;69.10
17697;DHT22;8967;47.984;7.842;2023-06-10T12:22:53;25.40;69.00
17697;DHT22;8967;47.984;7.842;2023-06-10T12:25:24;25.50;68.10
17697;DHT22;8967;47.984;7.842;2023-06-10T12:27:55;25.50;68.10
17697;DHT22;8967;47.984;7.842;2023-06-10T12:30:24;25.60;68.20
17697;DHT22;8967;47.984;7.842;2023-06-10T12:32:52;25.60;68.20
17697;DHT22;8967;47.984;7.842;2023-06-10T12:35:19;25.60;68.40
17697;DHT22;8967;47.984;7.842;2023-06-10T12:37:55;25.60;67.90
17697;DHT22;8967;47.984;7.842;2023-06-10T12:40:26;25.60;68.10
17697;DHT22;8967;47.984;7.842;2023-06-10T12:42:55;25.60;66.80
17697;DHT22;8967;47.984;7.842;2023-06-10T12:45:29;25.60;66.60
17697;DHT22;8967;47.984;7.842;2023-06-10T12:48:07;25.60;67.20
17697;DHT22;8967;47.984;7.842;2023-06-10T12:50:35;25.50;67.50
17697;DHT22;8967;47.984;7.842;2023-06-10T12:53:03;25.60;68.50
17697;DHT22;8967;47.984;7.842;2023-06-10T12:55:30;25.60;71.80
17697;DHT22;8967;47.984;7.842;2023-06-10T12:57:59;25.60;75.90
17697;DHT22;8967;47.984;7.842;2023-06-10T13:00:27;25.60;77.00
17697;DHT22;8967;47.984;7.842;2023-06-10T13:03:00;25.60;78.50
17697;DHT22;8967;47.984;7.842;2023-06-10T13:05:27;25.60;80.40
17697;DHT22;8967;47.984;7.842;2023-06-10T13:07:55;25.60;81.50
17697;DHT22;8967;47.984;7.842;2023-06-10T13:10:24;25.50;83.80
17697;DHT22;8967;47.984;7.842;2023-06-10T13:12:51;25.50;86.30
17697;DHT22;8967;47.984;7.842;2023-06-10T13:15:21;25.50;86.50
17697;DHT22;8967;47.984;7.842;2023-06-10T13:17:51;25.40;87.20
17697;DHT22;8967;47.984;7.842;2023-06-10T13:20:18;25.40;87.70
17697;DHT22;8967;47.984;7.842;2023-06-10T13:22:46;25.30;88.30
17697;DHT22;8967;47.984;7.842;2023-06-10T13:25:15;25.30;88.50
17697;DHT22;8967;47.984;7.842;2023-06-10T13:27:42;25.20;89.60
17697;DHT22;8967;47.984;7.842;2023-06-10T13:30:12;25.20;89.80
17697;DHT22;8967;47.984;7.842;2023-06-10T13:32:40;25.20;90.40
17697;DHT22;8967;47.984;7.842;2023-06-10T13:35:07;25.10;90.50
17697;DHT22;8967;47.984;7.842;2023-06-10T13:37:35;25.10;90.50
17697;DHT22;8967;47.984;7.842;2023-06-10T13:40:03;25.10;90.60
17697;DHT22;8967;47.984;7.842;2023-06-10T13:42:32;25.10;91.10
17697;DHT22;8967;47.984;7.842;2023-06-10T13:45:01;25.10;91.50
17697;DHT22;8967;47.984;7.842;2023-06-10T13:47:28;25.10;91.20
17697;DHT22;8967;47.984;7.842;2023-06-10T13:49:59;25.10;91.10
17697;DHT22;8967;47.984;7.842;2023-06-10T13:52:25;25.00;91.00
17697;DHT22;8967;47.984;7.842;2023-06-10T13:54:52;25.00;90.70
17697;DHT22;8967;47.984;7.842;2023-06-10T13:57:19;25.00;90.40
17697;DHT22;8967;47.984;7.842;2023-06-10T13:59:46;25.00;88.80
17697;DHT22;8967;47.984;7.842;2023-06-10T14:02:16;24.90;87.70
17697;DHT22;8967;47.984;7.842;2023-06-10T14:04:43;24.90;87.10
17697;DHT22;8967;47.984;7.842;2023-06-10T14:07:11;24.90;86.60
17697;DHT22;8967;47.984;7.842;2023-06-10T14:09:41;24.90;85.70
17697;DHT22;8967;47.984;7.842;2023-06-10T14:12:08;25.00;83.40
17697;DHT22;8967;47.984;7.842;2023-06-10T14:14:41;25.00;82.80
17697;DHT22;8967;47.984;7.842;2023-06-10T14:17:10;25.00;82.20
17697;DHT22;8967;47.984;7.842;2023-06-10T14:19:37;25.00;81.50
17697;DHT22;8967;47.984;7.842;2023-06-10T14:22:06;25.00;80.90
17697;DHT22;8967;47.984;7.842;2023-06-10T14:24:37;25.00;80.70
17697;DHT22;8967;47.984;7.842;2023-06-10T14:27:07;25.10;79.70
17697;DHT22;8967;47.984;7.842;2023-06-10T14:29:36;25.10;77.70
17697;DHT22;8967;47.984;7.842;2023-06-10T14:32:06;25.10;77.60
17697;DHT22;8967;47.984;7.842;2023-06-10T14:34:37;25.20;76.50
17697;DHT22;8967;47.984;7.842;2023-06-10T14:37:10;25.20;76.00
17697;DHT22;8967;47.984;7.842;2023-06-10T14:39:38;25.30;75.50
17697;DHT22;8967;47.984;7.842;2023-06-10T14:42:06;25.30;75.30
17697;DHT22;8967;47.984;7.842;2023-06-10T14:44:33;25.30;73.40
17697;DHT22;8967;47.984;7.842;2023-06-10T14:47:00;25.30;72.60
17697;DHT22;8967;47.984;7.842;2023-06-10T14:49:27;25.30;72.20
17697;DHT22;8967;47.984;7.842;2023-06-10T14:51:54;25.30;71.50
17697;DHT22;8967;47.984;7.842;2023-06-10T14:54:21;25.30;70.50
17697;DHT22;8967;47.984;7.842;2023-06-10T14:56:49;25.30;70.90
17697;DHT22;8967;47.984;7.842;2023-06-10T14:59:18;25.30;70.70
17697;DHT22;8967;47.984;7.842;2023-06-10T15:01:45;25.30;70.30
17697;DHT22;8967;47.984;7.842;2023-06-10T15:04:12;25.40;69.90
17697;DHT22;8967;47.984;7.842;2023-06-10T15:06:41;25.40;68.80
17697;DHT22;8967;47.984;7.842;2023-06-10T15:09:08;25.50;69.10
17697;DHT22;8967;47.984;7.842;2023-06-10T15:11:35;25.50;69.10
17697;DHT22;8967;47.984;7.842;2023-06-10T15:14:04;25.60;69.10
17697;DHT22;8967;47.984;7.842;2023-06-10T15:16:31;25.60;68.10
17697;DHT22;8967;47.984;7.842;2023-06-10T15:18:58;25.70;68.40
17697;DHT22;8967;47.984;7.842;2023-06-10T15:21:25;25.70;66.50
17697;DHT22;8967;47.984;7.842;2023-06-10T15:23:52;25.70;67.20
17697;DHT22;8967;47.984;7.842;2023-06-10T15:26:19;25.70;66.40
17697;DHT22;8967;47.984;7.842;2023-06-10T15:28:46;25.70;65.50
17697;DHT22;8967;47.984;7.842;2023-06-10T15:31:15;25.70;65.40
17697;DHT22;8967;47.984;7.842;2023-06-10T15:33:42;25.70;65.20
17697;DHT22;8967;47.984;7.842;2023-06-10T15:36:09;25.70;65.30
17697;DHT22;8967;47.984;7.842;2023-06-10T15:38:36;25.70;65.70
17697;DHT22;8967;47.984;7.842;2023-06-10T15:41:03;25.70;66.00
17697;DHT22;8967;47.984;7.842;2023-06-10T15:43:29;25.70;66.40
17697;DHT22;8967;47.984;7.842;2023-06-10T15:45:56;25.70;67.10
17697;DHT22;8967;47.984;7.842;2023-06-10T15:48:25;25.70;67.00
17697;DHT22;8967;47.984;7.842;2023-06-10T15:50:51;25.70;66.80
17697;DHT22;8967;47.984;7.842;2023-06-10T15:53:18;25.70;67.00
17697;DHT22;8967;47.984;7.842;2023-06-10T15:55:45;25.60;66.80
17697;DHT22;8967;47.984;7.842;2023-06-10T15:58:12;25.60;66.80